createdAt,value
2022-09-06T00:00:42.455Z,19.20
2022-09-06T00:03:11.870Z,19.20
2022-09-06T00:05:44.121Z,19.30
2022-09-06T00:08:13.242Z,19.20
2022-09-06T00:10:42.390Z,19.30
2022-09-06T00:13:15.044Z,19.30
2022-09-06T00:15:44.240Z,19.30
2022-09-06T00:18:14.037Z,19.40
2022-09-06T00:20:42.593Z,19.50
2022-09-06T00:23:11.603Z,19.50
2022-09-06T00:25:41.644Z,19.60
2022-09-06T00:28:11.794Z,19.60
2022-09-06T00:30:40.513Z,19.50
2022-09-06T00:33:09.337Z,19.70
2022-09-06T00:35:38.909Z,19.50
2022-09-06T00:38:08.608Z,19.40
2022-09-06T00:40:38.291Z,19.40
2022-09-06T00:43:08.963Z,19.30
2022-09-06T00:45:39.586Z,19.20
2022-09-06T00:48:08.747Z,19.10
2022-09-06T00:50:37.937Z,19.20
2022-09-06T00:53:08.708Z,19.20
2022-09-06T00:55:40.820Z,19.10
2022-09-06T00:58:10.244Z,19.20
2022-09-06T01:00:41.266Z,19.20
2022-09-06T01:03:13.545Z,19.20
2022-09-06T01:05:54.532Z,19.30
2022-09-06T01:08:34.832Z,19.40
2022-09-06T01:11:20.902Z,19.30
2022-09-06T01:13:58.214Z,19.20
2022-09-06T01:16:34.795Z,19.20
2022-09-06T01:20:10.981Z,19.10
2022-09-06T01:23:12.181Z,19.20
2022-09-06T01:25:54.250Z,19.10
2022-09-06T01:28:36.906Z,18.90
2022-09-06T01:31:18.817Z,18.80
2022-09-06T01:33:56.045Z,19.10
2022-09-06T01:36:28.736Z,19.30
2022-09-06T01:42:02.004Z,19.10
2022-09-06T01:44:33.589Z,19.20
2022-09-06T01:47:11.737Z,19.40
2022-09-06T01:49:54.776Z,19.50
2022-09-06T01:52:34.252Z,19.70
2022-09-06T01:55:18.975Z,19.90
2022-09-06T01:57:56.630Z,19.90
2022-09-06T02:00:28.340Z,19.90
2022-09-06T02:03:09.716Z,19.90
2022-09-06T02:05:50.087Z,20.10
2022-09-06T02:08:22.851Z,20.20
2022-09-06T02:10:56.653Z,20.30
2022-09-06T02:13:28.121Z,20.30
2022-09-06T02:16:02.533Z,20.40
2022-09-06T02:18:43.696Z,20.40
2022-09-06T02:21:17.487Z,20.40
2022-09-06T02:23:51.133Z,20.50
2022-09-06T02:26:23.178Z,20.50
2022-09-06T02:28:54.620Z,20.50
2022-09-06T02:31:27.809Z,20.50
2022-09-06T02:33:59.085Z,20.30
2022-09-06T02:36:29.183Z,20.20
2022-09-06T02:38:59.036Z,20.10
2022-09-06T02:41:29.827Z,20.00
2022-09-06T02:43:58.864Z,19.90
2022-09-06T02:46:29.068Z,19.70
2022-09-06T02:48:57.988Z,19.60
2022-09-06T02:51:26.731Z,19.50
2022-09-06T02:53:57.158Z,19.40
2022-09-06T02:56:26.267Z,19.40
2022-09-06T02:58:55.009Z,19.40
2022-09-06T03:01:25.711Z,19.30
2022-09-06T03:04:00.362Z,19.10
2022-09-06T03:09:44.634Z,18.90
2022-09-06T03:15:41.562Z,18.80
2022-09-06T03:21:18.347Z,18.50
2022-09-06T03:23:47.543Z,18.30
2022-09-06T03:26:16.756Z,18.20
2022-09-06T03:28:45.363Z,18.20
2022-09-06T03:31:14.317Z,18.20
2022-09-06T03:33:47.083Z,18.20
2022-09-06T03:36:17.639Z,18.20
2022-09-06T03:38:48.552Z,18.30
2022-09-06T03:41:17.653Z,18.40
2022-09-06T03:43:46.583Z,18.40
2022-09-06T03:46:16.152Z,18.60
2022-09-06T03:48:47.547Z,18.70
2022-09-06T03:51:17.940Z,18.70
2022-09-06T03:53:46.925Z,18.70
2022-09-06T03:56:17.235Z,18.60
2022-09-06T03:58:45.932Z,18.50
2022-09-06T04:01:14.829Z,18.60
2022-09-06T04:03:44.455Z,18.70
2022-09-06T04:06:15.051Z,18.50
2022-09-06T04:11:29.937Z,18.40
2022-09-06T04:13:59.871Z,18.40
2022-09-06T04:16:33.685Z,18.40
2022-09-06T04:19:04.318Z,18.30
2022-09-06T04:24:40.464Z,18.20
2022-09-06T04:27:17.162Z,18.00
2022-09-06T04:29:48.047Z,18.00
2022-09-06T04:32:18.232Z,18.10
2022-09-06T04:34:56.673Z,18.00
2022-09-06T04:37:36.049Z,17.90
2022-09-06T04:40:07.443Z,17.80
2022-09-06T04:42:36.670Z,17.80
2022-09-06T04:45:08.531Z,17.80
2022-09-06T04:47:55.425Z,17.80
2022-09-06T04:53:23.979Z,17.70
2022-09-06T04:56:00.920Z,17.60
2022-09-06T05:01:34.363Z,17.40
2022-09-06T05:04:03.854Z,17.40
2022-09-06T05:06:34.325Z,17.50
2022-09-06T05:09:11.810Z,17.40
2022-09-06T05:11:43.009Z,17.50
2022-09-06T05:14:12.667Z,17.40
2022-09-06T05:16:44.372Z,17.30
2022-09-06T05:19:38.291Z,17.30
2022-09-06T05:22:12.715Z,17.40
2022-09-06T05:24:43.597Z,17.30
2022-09-06T05:30:12.684Z,17.40
2022-09-06T05:32:44.022Z,17.30
2022-09-06T05:38:04.706Z,17.30
2022-09-06T05:40:50.277Z,17.40
2022-09-06T05:43:22.839Z,17.50
2022-09-06T05:45:52.261Z,17.50
2022-09-06T05:48:23.834Z,17.60
2022-09-06T05:51:06.492Z,17.60
2022-09-06T05:53:39.036Z,17.60
2022-09-06T05:56:09.068Z,17.70
2022-09-06T05:58:52.742Z,17.80
2022-09-06T06:01:27.695Z,17.90
2022-09-06T06:03:57.898Z,17.90
2022-09-06T06:06:35.426Z,17.90
2022-09-06T06:09:04.996Z,18.10
2022-09-06T06:11:34.591Z,18.10
2022-09-06T06:14:07.988Z,18.20
2022-09-06T06:16:37.217Z,18.30
2022-09-06T06:30:37.658Z,18.30
2022-09-06T06:38:57.241Z,18.20
2022-09-06T06:41:26.889Z,18.20
2022-09-06T06:44:01.491Z,18.20
2022-09-06T06:46:32.105Z,18.20
2022-09-06T06:49:02.509Z,18.30
2022-09-06T06:51:33.556Z,18.40
2022-09-06T06:54:02.799Z,18.60
2022-09-06T06:56:36.097Z,18.80
2022-09-06T06:59:28.341Z,18.90
2022-09-06T07:02:11.400Z,18.90
2022-09-06T07:04:42.684Z,18.90
2022-09-06T07:07:30.904Z,19.20
2022-09-06T07:17:00.549Z,19.30
2022-09-06T07:22:20.590Z,19.40
2022-09-06T07:24:49.375Z,19.50
2022-09-06T07:30:11.344Z,19.40
2022-09-06T07:32:42.837Z,19.50
2022-09-06T07:35:12.493Z,19.50
2022-09-06T07:37:45.127Z,19.50
2022-09-06T07:40:14.473Z,19.50
2022-09-06T07:42:43.970Z,19.60
2022-09-06T07:45:53.069Z,19.60
2022-09-06T07:48:26.492Z,19.90
2022-09-06T07:58:27.904Z,20.20
2022-09-06T08:11:48.640Z,20.60
2022-09-06T08:14:27.538Z,20.70
2022-09-06T08:17:19.347Z,20.60
2022-09-06T08:19:49.160Z,20.80
2022-09-06T08:22:23.649Z,20.90
2022-09-06T08:25:01.477Z,20.90
2022-09-06T08:27:48.786Z,21.00
2022-09-06T08:30:35.297Z,21.10
2022-09-06T08:33:09.520Z,21.30
2022-09-06T08:35:56.348Z,21.10
2022-09-06T08:42:20.941Z,21.40
2022-09-06T08:45:57.094Z,21.40
2022-09-06T08:49:17.411Z,21.20
2022-09-06T09:03:00.926Z,21.70
2022-09-06T09:05:41.353Z,21.60
2022-09-06T09:08:22.947Z,21.70
2022-09-06T09:10:57.459Z,21.90
2022-09-06T09:13:33.126Z,21.90
2022-09-06T09:16:02.176Z,22.00
2022-09-06T09:18:48.612Z,22.10
2022-09-06T09:21:26.839Z,22.20
2022-09-06T09:24:07.184Z,22.10
2022-09-06T09:29:32.122Z,22.30
2022-09-06T09:32:12.592Z,22.50
2022-09-06T09:34:59.289Z,22.60
2022-09-06T09:37:53.296Z,22.60
2022-09-06T09:40:49.125Z,22.60
2022-09-06T09:57:17.366Z,23.20
2022-09-06T09:59:47.972Z,23.30
2022-09-06T10:02:42.904Z,23.50
2022-09-06T10:05:35.124Z,23.50
2022-09-06T10:08:13.023Z,23.40
2022-09-06T10:13:31.688Z,23.60
2022-09-06T10:16:03.428Z,23.80
2022-09-06T10:18:37.546Z,23.80
2022-09-06T10:27:24.714Z,24.00
2022-09-06T10:30:13.395Z,23.90
2022-09-06T10:38:49.002Z,24.30
2022-09-06T10:41:47.696Z,24.00
2022-09-06T10:54:00.632Z,24.30
2022-09-06T11:58:33.562Z,27.10
2022-09-06T12:01:37.044Z,27.30
2022-09-06T12:04:20.321Z,27.20
2022-09-06T12:07:10.037Z,27.20
2022-09-06T12:12:44.413Z,27.70
2022-09-06T12:15:35.626Z,27.80
2022-09-06T12:18:06.202Z,27.70
2022-09-06T12:21:21.179Z,27.70
2022-09-06T12:24:03.726Z,27.80
2022-09-06T12:26:55.793Z,28.30
2022-09-06T12:29:28.080Z,28.10
2022-09-06T12:32:18.550Z,28.10
2022-09-06T12:38:12.229Z,28.20
2022-09-06T12:44:12.479Z,28.30
2022-09-06T12:46:54.052Z,28.30
2022-09-06T12:49:48.586Z,28.20
2022-09-06T12:52:51.197Z,28.70
2022-09-06T12:59:00.168Z,28.50
2022-09-06T13:01:39.320Z,28.90
2022-09-06T13:11:50.853Z,29.10
2022-09-06T13:22:23.745Z,29.20
2022-09-06T16:50:54.555Z,24.50
2022-09-06T16:53:23.639Z,24.10
2022-09-06T16:55:51.961Z,23.90
2022-09-06T16:58:19.949Z,23.70
2022-09-06T17:00:47.988Z,23.60
2022-09-06T17:03:16.732Z,23.30
2022-09-06T17:05:44.774Z,23.10
2022-09-06T17:08:14.409Z,22.90
2022-09-06T17:10:43.971Z,22.90
2022-09-06T17:13:12.238Z,22.60
2022-09-06T17:15:54.218Z,22.40
2022-09-06T17:18:23.489Z,21.90
2022-09-06T17:20:58.319Z,20.70
2022-09-06T17:23:28.097Z,20.20
2022-09-06T17:25:56.532Z,20.00
2022-09-06T17:28:25.312Z,20.10
2022-09-06T17:30:53.622Z,20.40
2022-09-06T17:33:22.879Z,20.50
2022-09-06T17:35:50.896Z,20.60
2022-09-06T17:38:18.959Z,20.70
2022-09-06T17:43:39.150Z,20.80
2022-09-06T17:46:08.487Z,20.80
2022-09-06T17:48:37.193Z,20.60
2022-09-06T17:51:09.391Z,20.70
2022-09-06T17:53:38.804Z,20.90
2022-09-06T17:56:08.195Z,20.50
2022-09-06T17:58:40.117Z,20.50
2022-09-06T18:01:10.528Z,20.40
2022-09-06T18:03:42.458Z,20.40
2022-09-06T18:06:12.180Z,20.40
2022-09-06T18:08:42.632Z,20.50
2022-09-06T18:11:13.018Z,20.70
2022-09-06T18:13:43.254Z,20.10
2022-09-06T18:16:14.101Z,20.10
2022-09-06T18:18:43.442Z,20.20
2022-09-06T18:21:11.701Z,20.20
2022-09-06T18:23:39.896Z,19.90
2022-09-06T18:26:09.728Z,20.30
2022-09-06T18:28:39.335Z,20.30
2022-09-06T18:31:11.274Z,20.20
2022-09-06T18:33:41.080Z,20.50
2022-09-06T18:36:11.378Z,20.50
2022-09-06T18:38:41.038Z,19.90
2022-09-06T18:41:31.384Z,20.00
2022-09-06T18:44:03.053Z,20.10
2022-09-06T18:46:34.309Z,20.10
2022-09-06T18:49:43.754Z,20.40
2022-09-06T18:52:19.404Z,20.60
2022-09-06T18:55:22.209Z,20.40
2022-09-06T18:57:53.566Z,19.80
2022-09-06T19:00:26.924Z,19.90
2022-09-06T19:02:57.191Z,19.80
2022-09-06T19:05:26.269Z,19.70
2022-09-06T19:07:54.602Z,19.60
2022-09-06T19:10:23.084Z,19.80
2022-09-06T19:12:53.502Z,19.60
2022-09-06T19:15:21.960Z,19.30
2022-09-06T19:17:50.767Z,19.60
2022-09-06T19:20:23.348Z,19.50
2022-09-06T19:22:52.016Z,19.70
2022-09-06T19:25:20.543Z,19.80
2022-09-06T19:27:49.069Z,19.80
2022-09-06T19:30:17.840Z,19.80
2022-09-06T19:32:47.167Z,19.60
2022-09-06T19:35:15.707Z,19.40
2022-09-06T19:37:46.088Z,19.20
2022-09-06T19:40:14.576Z,18.90
2022-09-06T19:42:43.388Z,18.80
2022-09-06T19:45:12.032Z,18.80
2022-09-06T19:47:40.971Z,18.90
2022-09-06T19:50:24.262Z,18.80
2022-09-06T19:52:55.180Z,18.80
2022-09-06T19:55:44.557Z,18.80
2022-09-06T19:58:18.443Z,19.00
2022-09-06T20:00:47.090Z,19.20
2022-09-06T20:03:15.391Z,18.90
2022-09-06T20:06:17.207Z,18.80
2022-09-06T20:09:23.181Z,19.30
2022-09-06T20:11:54.923Z,19.60
2022-09-06T20:14:24.573Z,19.30
2022-09-06T20:17:06.550Z,19.20
2022-09-06T20:19:45.059Z,19.00
2022-09-06T20:22:15.811Z,18.60
2022-09-06T20:24:45.708Z,18.60
2022-09-06T20:27:18.925Z,18.70
2022-09-06T20:29:48.100Z,19.00
2022-09-06T20:32:16.521Z,19.10
2022-09-06T20:34:45.648Z,18.90
2022-09-06T20:37:16.049Z,19.20
2022-09-06T20:39:49.663Z,19.00
2022-09-06T20:42:21.459Z,18.70
2022-09-06T20:44:50.713Z,19.00
2022-09-06T20:47:19.299Z,19.00
2022-09-06T20:49:47.740Z,18.70
2022-09-06T20:52:16.123Z,18.60
2022-09-06T20:54:53.935Z,18.60
2022-09-06T20:57:22.293Z,18.60
2022-09-06T20:59:53.135Z,18.70
2022-09-06T21:02:21.889Z,18.70
2022-09-06T21:04:50.118Z,18.50
2022-09-06T21:07:18.463Z,18.40
2022-09-06T21:09:48.126Z,18.20
2022-09-06T21:12:16.437Z,18.00
2022-09-06T21:14:44.861Z,18.00
2022-09-06T21:17:13.360Z,18.10
2022-09-06T21:19:41.643Z,18.20
2022-09-06T21:22:10.027Z,18.30
2022-09-06T21:24:38.310Z,18.00
2022-09-06T21:27:08.183Z,17.80
2022-09-06T21:29:36.999Z,17.50
2022-09-06T21:32:05.607Z,17.50
2022-09-06T21:34:33.866Z,17.60
2022-09-06T21:37:02.086Z,17.30
2022-09-06T21:39:30.471Z,17.20
2022-09-06T21:41:58.734Z,17.20
2022-09-06T21:44:28.419Z,17.50
2022-09-06T21:46:56.750Z,17.50
2022-09-06T21:49:25.102Z,17.70
2022-09-06T21:51:53.586Z,17.70
2022-09-06T21:54:22.209Z,17.60
2022-09-06T21:56:50.553Z,17.40
2022-09-06T21:59:18.986Z,17.70
2022-09-06T22:01:49.412Z,17.80
2022-09-06T22:04:19.516Z,17.50
2022-09-06T22:06:48.032Z,17.30
2022-09-06T22:09:16.350Z,17.30
2022-09-06T22:11:46.070Z,17.40
2022-09-06T22:14:16.179Z,17.50
2022-09-06T22:16:44.673Z,17.30
2022-09-06T22:19:15.061Z,17.40
2022-09-06T22:21:43.552Z,17.30
2022-09-06T22:24:12.882Z,17.40
2022-09-06T22:26:42.378Z,17.70
2022-09-06T22:29:13.470Z,17.60
2022-09-06T22:31:42.448Z,17.60
2022-09-06T22:34:11.530Z,17.70
2022-09-06T22:36:41.173Z,17.90
2022-09-06T22:39:09.611Z,18.00
2022-09-06T22:41:37.975Z,17.80
2022-09-06T22:44:06.972Z,18.00
2022-09-06T22:46:35.308Z,17.90
2022-09-06T22:49:05.407Z,17.70
2022-09-06T22:51:33.989Z,17.50
2022-09-06T22:54:04.603Z,17.50
2022-09-06T22:56:33.535Z,17.50
2022-09-06T22:59:01.784Z,17.40
2022-09-06T23:01:30.470Z,17.50
2022-09-06T23:03:58.947Z,17.60
2022-09-06T23:06:27.474Z,17.50
2022-09-06T23:08:55.702Z,17.50
2022-09-06T23:11:25.379Z,17.30
2022-09-06T23:13:57.074Z,17.30
2022-09-06T23:16:26.638Z,17.30
2022-09-06T23:18:55.717Z,17.20
2022-09-06T23:21:25.547Z,17.10
2022-09-06T23:23:56.341Z,17.00
2022-09-06T23:26:29.159Z,17.10
2022-09-06T23:28:57.543Z,17.20
2022-09-06T23:31:27.339Z,17.10
2022-09-06T23:33:56.977Z,17.30
2022-09-06T23:36:26.343Z,17.20
2022-09-06T23:38:55.374Z,17.10
2022-09-06T23:41:25.527Z,17.00
2022-09-06T23:43:53.872Z,17.10
2022-09-06T23:46:22.244Z,17.20
2022-09-06T23:48:50.592Z,17.20
2022-09-06T23:51:19.578Z,17.60
2022-09-06T23:53:47.860Z,17.40
2022-09-06T23:56:16.184Z,17.40
2022-09-06T23:58:45.808Z,17.60
